Time;durP1;ratioP1;P1;durP2;ratioP2;P2;SDS_P1;SDS_P2;PMS_P1;PMS_P2;Temp;Humidity;BMP_temperature;BMP_pressure;BME280_temperature;BME280_humidity;BME280_pressure;Samples;Min_cycle;Max_cycle;Signal;HPM_P1;HPM_P2
2021/03/06 00:01:58;;;;;;;11.57;5.47;;;;;;;;;;10341376;28;20443;-77
2021/03/06 00:07:20;;;;;;;11.37;5.33;;;;;;;;;;10338031;28;20569;-77
2021/03/06 00:12:24;;;;;;;11.00;5.50;;;;;;;;;;10340821;28;20213;-76
2021/03/06 00:17:28;;;;;;;13.87;5.10;;;;;;;;;;10340101;28;20243;-78
2021/03/06 00:22:32;;;;;;;9.00;4.70;;;;;;;;;;10340338;28;20213;-75
2021/03/06 00:27:35;;;;;;;11.43;5.20;;;;;;;;;;10340412;28;20432;-75
2021/03/06 00:32:38;;;;;;;10.97;5.40;;;;;;;;;;10343651;28;20216;-78
2021/03/06 00:37:41;;;;;;;10.90;5.47;;;;;;;;;;10336842;28;20295;-75
2021/03/06 00:42:44;;;;;;;13.80;5.43;;;;;;;;;;10340679;28;20577;-78
2021/03/06 00:47:46;;;;;;;10.57;5.37;;;;;;;;;;10337163;28;20221;-77
2021/03/06 00:52:49;;;;;;;12.03;5.23;;;;;;;;;;10337642;28;20669;-75
2021/03/06 00:57:52;;;;;;;10.20;5.50;;;;;;;;;;10339425;28;20347;-77
2021/03/06 01:02:56;;;;;;;14.00;6.03;;;;;;;;;;10338586;28;20233;-75
2021/03/06 01:07:59;;;;;;;13.73;6.03;;;;;;;;;;10335265;28;20213;-75
2021/03/06 01:13:02;;;;;;;15.10;5.63;;;;;;;;;;10337107;28;20216;-77
2021/03/06 01:18:04;;;;;;;14.30;5.70;;;;;;;;;;10325748;28;20256;-74
2021/03/06 01:23:07;;;;;;;13.07;5.50;;;;;;;;;;10334562;28;20205;-78
2021/03/06 01:28:09;;;;;;;11.13;5.77;;;;;;;;;;10346842;28;20216;-77
2021/03/06 01:33:12;;;;;;;11.40;6.07;;;;;;;;;;10335199;28;20204;-76
2021/03/06 01:38:14;;;;;;;11.97;5.53;;;;;;;;;;10338945;28;20233;-77
2021/03/06 01:43:17;;;;;;;10.70;5.87;;;;;;;;;;10339135;28;20574;-76
2021/03/06 01:48:21;;;;;;;11.63;5.53;;;;;;;;;;10334398;28;20221;-77
2021/03/06 01:53:23;;;;;;;10.83;5.50;;;;;;;;;;10339130;28;20352;-77
2021/03/06 01:58:26;;;;;;;10.77;5.40;;;;;;;;;;10340137;28;20220;-77
2021/03/06 02:03:28;;;;;;;11.47;5.97;;;;;;;;;;10336432;28;20231;-76
2021/03/06 02:08:30;;;;;;;12.93;6.00;;;;;;;;;;10332303;28;20213;-77
2021/03/06 02:13:44;;;;;;;14.43;5.80;;;;;;;;;;10336516;28;20210;-76
2021/03/06 02:18:49;;;;;;;9.87;5.63;;;;;;;;;;10331468;28;20331;-77
2021/03/06 02:24:00;;;;;;;8.77;4.70;;;;;;;;;;10332749;28;20660;-77
2021/03/06 02:29:08;;;;;;;12.73;5.07;;;;;;;;;;10336018;28;21891;-77
2021/03/06 02:34:15;;;;;;;11.37;4.87;;;;;;;;;;10331956;28;20237;-76
2021/03/06 02:39:18;;;;;;;11.63;4.83;;;;;;;;;;10333636;28;20217;-76
2021/03/06 02:44:21;;;;;;;10.53;5.40;;;;;;;;;;10334032;28;20762;-76
2021/03/06 02:49:24;;;;;;;8.90;4.93;;;;;;;;;;10332818;28;20255;-75
2021/03/06 02:54:27;;;;;;;11.03;5.27;;;;;;;;;;10335819;28;20609;-76
2021/03/06 02:59:38;;;;;;;11.30;5.00;;;;;;;;;;10334886;28;20669;-76
2021/03/06 03:04:46;;;;;;;10.83;4.13;;;;;;;;;;10328871;28;20251;-76
2021/03/06 03:09:52;;;;;;;10.40;4.37;;;;;;;;;;10330193;28;20217;-76
2021/03/06 03:14:57;;;;;;;11.00;4.80;;;;;;;;;;10329240;28;20274;-75
2021/03/06 03:20:09;;;;;;;10.47;4.47;;;;;;;;;;10339443;28;20704;-75
2021/03/06 03:25:12;;;;;;;12.07;4.93;;;;;;;;;;10327102;28;20709;-77
2021/03/06 03:30:15;;;;;;;7.63;4.27;;;;;;;;;;10333828;28;20361;-75
2021/03/06 03:35:21;;;;;;;10.17;4.53;;;;;;;;;;10337771;28;20328;-77
2021/03/06 03:40:24;;;;;;;11.40;4.47;;;;;;;;;;10342177;28;20216;-77
2021/03/06 03:45:26;;;;;;;10.40;4.30;;;;;;;;;;10335592;28;20217;-77
2021/03/06 03:50:29;;;;;;;10.00;4.30;;;;;;;;;;10342235;28;20228;-75
2021/03/06 03:55:32;;;;;;;14.10;4.23;;;;;;;;;;10331681;28;20607;-75
2021/03/06 04:00:34;;;;;;;10.50;4.10;;;;;;;;;;10336921;28;20224;-74
2021/03/06 04:05:37;;;;;;;11.77;4.63;;;;;;;;;;10334531;28;20229;-75
2021/03/06 04:10:39;;;;;;;9.67;4.17;;;;;;;;;;10335650;28;20664;-75
2021/03/06 04:15:42;;;;;;;8.97;4.30;;;;;;;;;;10336270;28;20232;-77
2021/03/06 04:20:55;;;;;;;12.27;4.80;;;;;;;;;;10337151;28;20212;-77
2021/03/06 04:26:02;;;;;;;9.33;4.20;;;;;;;;;;10337624;28;20210;-77
2021/03/06 04:31:05;;;;;;;8.10;4.07;;;;;;;;;;10334335;28;20311;-77
2021/03/06 04:36:08;;;;;;;8.27;4.20;;;;;;;;;;10335858;28;20236;-77
2021/03/06 04:41:10;;;;;;;8.93;4.20;;;;;;;;;;10332446;28;20228;-77
2021/03/06 04:46:12;;;;;;;7.77;4.23;;;;;;;;;;10335244;28;20842;-77
2021/03/06 04:51:15;;;;;;;7.43;4.40;;;;;;;;;;10335178;28;20221;-77
2021/03/06 04:56:17;;;;;;;11.47;4.43;;;;;;;;;;10334219;28;20231;-77
2021/03/06 05:01:19;;;;;;;8.67;4.13;;;;;;;;;;10335830;28;20235;-77
2021/03/06 05:06:22;;;;;;;9.20;4.20;;;;;;;;;;10333309;28;20228;-77
2021/03/06 05:11:24;;;;;;;9.03;4.10;;;;;;;;;;10329773;28;20678;-77
2021/03/06 05:16:26;;;;;;;8.90;3.90;;;;;;;;;;10337938;28;20233;-75
2021/03/06 05:21:30;;;;;;;10.40;4.30;;;;;;;;;;10339421;28;20303;-76
2021/03/06 05:26:32;;;;;;;8.80;4.53;;;;;;;;;;10331790;28;20213;-75
2021/03/06 05:31:34;;;;;;;9.30;4.17;;;;;;;;;;10333958;28;20213;-75
2021/03/06 05:36:37;;;;;;;11.43;4.77;;;;;;;;;;10333380;28;20942;-76
2021/03/06 05:41:39;;;;;;;10.40;4.10;;;;;;;;;;10334828;28;20224;-76
2021/03/06 05:46:41;;;;;;;9.87;4.30;;;;;;;;;;10328935;28;20323;-76
2021/03/06 05:51:45;;;;;;;7.80;4.43;;;;;;;;;;10332723;28;20315;-76
2021/03/06 05:56:49;;;;;;;10.10;4.33;;;;;;;;;;10327523;28;20287;-75
2021/03/06 06:01:51;;;;;;;10.60;4.73;;;;;;;;;;10333810;28;20236;-75
2021/03/06 06:06:54;;;;;;;11.87;4.93;;;;;;;;;;10327543;28;20213;-76
2021/03/06 06:11:56;;;;;;;10.40;4.60;;;;;;;;;;10330514;28;20228;-76
2021/03/06 06:17:11;;;;;;;10.07;4.60;;;;;;;;;;10327835;28;20228;-75
2021/03/06 06:22:18;;;;;;;14.53;4.20;;;;;;;;;;10333585;28;20224;-76
2021/03/06 06:27:24;;;;;;;9.73;5.03;;;;;;;;;;10327621;28;20781;-76
2021/03/06 06:32:26;;;;;;;9.40;4.33;;;;;;;;;;10327982;28;20371;-76
2021/03/06 06:37:31;;;;;;;7.63;4.60;;;;;;;;;;10332800;28;20290;-76
2021/03/06 06:42:34;;;;;;;8.60;4.30;;;;;;;;;;10327360;28;20221;-77
2021/03/06 06:47:37;;;;;;;13.87;4.30;;;;;;;;;;10334317;28;20595;-77
2021/03/06 06:52:41;;;;;;;12.43;5.20;;;;;;;;;;10328003;28;20217;-77
2021/03/06 06:57:47;;;;;;;10.17;4.53;;;;;;;;;;10330644;28;20237;-77
2021/03/06 07:02:52;;;;;;;9.13;4.43;;;;;;;;;;10328274;28;20240;-77
2021/03/06 07:07:56;;;;;;;11.00;4.90;;;;;;;;;;10336297;28;20213;-78
2021/03/06 07:12:58;;;;;;;11.07;4.90;;;;;;;;;;10334886;28;20212;-77
2021/03/06 07:18:16;;;;;;;11.87;4.50;;;;;;;;;;10339723;28;20597;-75
2021/03/06 07:23:20;;;;;;;11.30;4.73;;;;;;;;;;10335411;28;20303;-75
2021/03/06 07:28:22;;;;;;;9.97;4.40;;;;;;;;;;10350459;28;20217;-76
2021/03/06 07:33:26;;;;;;;11.13;4.73;;;;;;;;;;10339082;28;20654;-75
2021/03/06 07:38:29;;;;;;;9.70;4.53;;;;;;;;;;10334948;28;20324;-76
2021/03/06 07:43:35;;;;;;;11.20;4.70;;;;;;;;;;10336864;28;20201;-77
2021/03/06 07:48:40;;;;;;;10.20;4.43;;;;;;;;;;10334196;28;20205;-76
2021/03/06 07:53:45;;;;;;;12.27;4.67;;;;;;;;;;10338342;28;20710;-76
2021/03/06 07:58:47;;;;;;;9.53;4.23;;;;;;;;;;10334558;28;20610;-76
2021/03/06 08:03:49;;;;;;;12.07;4.50;;;;;;;;;;10337833;28;20243;-76
2021/03/06 08:09:12;;;;;;;11.33;4.10;;;;;;;;;;10332993;28;20205;-76
2021/03/06 08:14:37;;;;;;;13.87;4.70;;;;;;;;;;10339417;28;20686;-76
2021/03/06 08:19:43;;;;;;;16.33;5.43;;;;;;;;;;10338220;28;20216;-76
2021/03/06 08:24:45;;;;;;;17.10;5.33;;;;;;;;;;10332101;28;20208;-77
2021/03/06 08:29:55;;;;;;;11.73;4.40;;;;;;;;;;10336480;28;20217;-77
2021/03/06 08:34:57;;;;;;;14.37;4.43;;;;;;;;;;10331703;28;20246;-77
2021/03/06 08:40:00;;;;;;;15.90;4.27;;;;;;;;;;10334397;28;20227;-77
2021/03/06 08:45:04;;;;;;;12.90;4.50;;;;;;;;;;10331637;28;20209;-76
2021/03/06 08:50:07;;;;;;;11.17;4.27;;;;;;;;;;10333885;28;20666;-77
2021/03/06 08:55:10;;;;;;;17.27;5.43;;;;;;;;;;10333232;28;20725;-77
2021/03/06 09:00:18;;;;;;;13.77;4.17;;;;;;;;;;10334681;28;20205;-76
2021/03/06 09:05:21;;;;;;;9.90;4.33;;;;;;;;;;10331264;28;20239;-76
2021/03/06 09:10:29;;;;;;;12.80;4.50;;;;;;;;;;10337002;28;20217;-76
2021/03/06 09:15:39;;;;;;;11.40;3.90;;;;;;;;;;10335308;28;20717;-76
2021/03/06 09:20:47;;;;;;;10.30;4.10;;;;;;;;;;10339014;28;20216;-76
2021/03/06 09:25:51;;;;;;;8.30;3.37;;;;;;;;;;10334212;28;20274;-76
2021/03/06 09:31:01;;;;;;;6.63;3.00;;;;;;;;;;10330470;28;20213;-75
2021/03/06 09:36:04;;;;;;;4.93;2.77;;;;;;;;;;10333012;28;20229;-76
2021/03/06 09:41:11;;;;;;;8.43;2.60;;;;;;;;;;10331602;28;20232;-75
2021/03/06 09:46:14;;;;;;;8.10;2.80;;;;;;;;;;10332899;28;20686;-75
2021/03/06 09:51:16;;;;;;;10.57;2.93;;;;;;;;;;10329557;28;20220;-76
2021/03/06 09:56:18;;;;;;;6.37;2.27;;;;;;;;;;10338448;28;20236;-77
2021/03/06 10:01:21;;;;;;;5.80;1.80;;;;;;;;;;10330179;28;20578;-76
2021/03/06 10:06:24;;;;;;;6.10;2.00;;;;;;;;;;10329985;28;20827;-77
2021/03/06 10:11:27;;;;;;;5.87;1.70;;;;;;;;;;10329424;28;20733;-77
2021/03/06 10:16:42;;;;;;;4.73;1.60;;;;;;;;;;10325286;28;20622;-78
2021/03/06 10:21:56;;;;;;;2.93;1.23;;;;;;;;;;10329720;28;20209;-78
2021/03/06 10:26:58;;;;;;;3.03;1.27;;;;;;;;;;10336518;28;20217;-78
2021/03/06 10:32:02;;;;;;;4.23;1.47;;;;;;;;;;10336251;28;20291;-78
2021/03/06 10:37:22;;;;;;;3.50;1.30;;;;;;;;;;10331302;28;20319;-77
2021/03/06 10:42:24;;;;;;;2.60;1.40;;;;;;;;;;10330488;28;20213;-77
2021/03/06 10:47:27;;;;;;;4.27;1.20;;;;;;;;;;10326136;28;20221;-76
2021/03/06 10:52:30;;;;;;;2.30;1.27;;;;;;;;;;10326310;28;20220;-78
2021/03/06 10:57:32;;;;;;;1.63;1.30;;;;;;;;;;10326703;28;20327;-77
2021/03/06 11:02:35;;;;;;;3.20;1.40;;;;;;;;;;10330302;28;20258;-77
2021/03/06 11:07:38;;;;;;;2.40;1.53;;;;;;;;;;10326276;28;20227;-77
2021/03/06 11:12:49;;;;;;;1.90;1.23;;;;;;;;;;10328415;28;20258;-77
2021/03/06 11:17:54;;;;;;;2.43;1.40;;;;;;;;;;10329776;28;20688;-77
2021/03/06 11:22:56;;;;;;;2.67;1.50;;;;;;;;;;10330166;28;20640;-77
2021/03/06 11:27:59;;;;;;;5.13;1.47;;;;;;;;;;10330239;28;20859;-77
2021/03/06 11:33:03;;;;;;;3.57;1.40;;;;;;;;;;10326159;28;20213;-77
2021/03/06 11:38:06;;;;;;;1.87;1.20;;;;;;;;;;10330697;28;20611;-77
2021/03/06 11:43:10;;;;;;;3.37;1.30;;;;;;;;;;10328145;28;20205;-76
2021/03/06 11:48:13;;;;;;;4.90;1.60;;;;;;;;;;10328665;28;20224;-77
2021/03/06 11:53:15;;;;;;;2.30;1.50;;;;;;;;;;10330857;28;20342;-77
2021/03/06 11:58:17;;;;;;;4.00;1.33;;;;;;;;;;10338432;28;20609;-77
2021/03/06 12:03:20;;;;;;;2.87;1.40;;;;;;;;;;10335722;28;20714;-77
2021/03/06 12:08:22;;;;;;;3.50;1.70;;;;;;;;;;10334624;28;20212;-77
2021/03/06 12:13:24;;;;;;;2.20;1.63;;;;;;;;;;10336507;28;20216;-77
2021/03/06 12:18:29;;;;;;;4.13;1.97;;;;;;;;;;10332418;28;20307;-77
2021/03/06 12:23:32;;;;;;;3.17;1.73;;;;;;;;;;10337034;28;20677;-77
2021/03/06 12:28:34;;;;;;;3.63;1.70;;;;;;;;;;10334286;28;20221;-76
2021/03/06 12:33:39;;;;;;;2.40;1.50;;;;;;;;;;10335199;28;20777;-77
2021/03/06 12:38:41;;;;;;;4.73;1.80;;;;;;;;;;10331483;28;20232;-76
2021/03/06 12:43:43;;;;;;;2.70;1.80;;;;;;;;;;10343738;28;20213;-76
2021/03/06 12:48:46;;;;;;;3.60;1.80;;;;;;;;;;10334781;28;20217;-77
2021/03/06 12:53:48;;;;;;;3.23;1.77;;;;;;;;;;10332737;28;20967;-77
2021/03/06 12:58:50;;;;;;;3.63;2.10;;;;;;;;;;10321552;28;20243;-77
2021/03/06 13:03:53;;;;;;;3.97;2.00;;;;;;;;;;10336559;28;20938;-76
2021/03/06 13:08:55;;;;;;;5.33;2.00;;;;;;;;;;10341100;28;20323;-77
2021/03/06 13:13:57;;;;;;;4.60;2.00;;;;;;;;;;10343445;28;20224;-77
2021/03/06 13:19:00;;;;;;;3.37;1.87;;;;;;;;;;10339818;28;20236;-77
2021/03/06 13:24:02;;;;;;;3.30;1.90;;;;;;;;;;10340851;28;20209;-76
2021/03/06 13:29:04;;;;;;;5.77;1.90;;;;;;;;;;10322043;28;20885;-76
2021/03/06 13:34:07;;;;;;;3.43;1.93;;;;;;;;;;10336865;28;20370;-76
2021/03/06 13:39:08;;;;;;;5.00;1.97;;;;;;;;;;10336903;28;20919;-76
2021/03/06 13:44:10;;;;;;;3.63;1.63;;;;;;;;;;10337576;28;20209;-76
2021/03/06 13:49:13;;;;;;;5.83;1.90;;;;;;;;;;10328601;28;20248;-76
2021/03/06 13:54:16;;;;;;;2.60;1.70;;;;;;;;;;10330507;28;20216;-76
2021/03/06 13:59:17;;;;;;;4.23;2.00;;;;;;;;;;10339153;28;20759;-76
2021/03/06 14:04:20;;;;;;;4.00;2.00;;;;;;;;;;10339674;28;20224;-75
2021/03/06 14:09:22;;;;;;;3.20;1.73;;;;;;;;;;10331730;28;20211;-76
2021/03/06 14:14:24;;;;;;;2.60;1.70;;;;;;;;;;10330929;28;20233;-77
2021/03/06 14:19:27;;;;;;;3.30;1.60;;;;;;;;;;10330840;28;20228;-77
2021/03/06 14:24:28;;;;;;;2.77;1.53;;;;;;;;;;10335431;28;20308;-78
2021/03/06 14:29:30;;;;;;;2.60;1.43;;;;;;;;;;10333714;28;20384;-76
2021/03/06 14:34:33;;;;;;;5.47;1.80;;;;;;;;;;10337554;28;20209;-75
2021/03/06 14:39:38;;;;;;;4.07;1.70;;;;;;;;;;10327833;28;20898;-76
2021/03/06 14:44:40;;;;;;;2.10;1.33;;;;;;;;;;10334340;28;20236;-75
2021/03/06 14:49:42;;;;;;;4.27;1.67;;;;;;;;;;10330864;28;20562;-75
2021/03/06 14:54:45;;;;;;;3.17;1.60;;;;;;;;;;10332325;28;20216;-75
2021/03/06 14:59:46;;;;;;;2.83;1.70;;;;;;;;;;10332011;28;20237;-76
2021/03/06 15:04:49;;;;;;;3.87;1.60;;;;;;;;;;10334103;28;20244;-76
2021/03/06 15:09:51;;;;;;;5.00;1.70;;;;;;;;;;10336528;28;20201;-76
2021/03/06 15:14:54;;;;;;;5.30;1.80;;;;;;;;;;10333917;28;20589;-76
2021/03/06 15:19:57;;;;;;;7.63;1.67;;;;;;;;;;10330120;28;20234;-77
2021/03/06 15:24:59;;;;;;;4.70;1.80;;;;;;;;;;10329438;28;20231;-76
2021/03/06 15:30:01;;;;;;;7.33;1.73;;;;;;;;;;10336479;28;20688;-76
2021/03/06 15:35:06;;;;;;;5.03;1.80;;;;;;;;;;10337958;28;20720;-77
2021/03/06 15:40:15;;;;;;;5.63;1.80;;;;;;;;;;10337673;28;21031;-76
2021/03/06 15:45:17;;;;;;;3.70;1.70;;;;;;;;;;10330147;28;20205;-75
2021/03/06 15:50:22;;;;;;;2.97;1.70;;;;;;;;;;10339001;28;20209;-78
2021/03/06 15:55:23;;;;;;;3.50;1.80;;;;;;;;;;10337800;28;20247;-76
2021/03/06 16:00:25;;;;;;;2.47;1.50;;;;;;;;;;10339119;28;20736;-76
2021/03/06 16:05:29;;;;;;;3.20;1.77;;;;;;;;;;10339359;28;20592;-76
2021/03/06 16:10:31;;;;;;;4.87;1.80;;;;;;;;;;10333534;28;20219;-77
2021/03/06 16:15:33;;;;;;;3.57;1.70;;;;;;;;;;10336560;28;20209;-76
2021/03/06 16:20:36;;;;;;;3.07;2.00;;;;;;;;;;10337793;28;20659;-76
2021/03/06 16:25:39;;;;;;;5.77;1.77;;;;;;;;;;10338203;28;20756;-78
2021/03/06 16:30:43;;;;;;;4.20;2.03;;;;;;;;;;10336937;28;20213;-77
2021/03/06 16:35:47;;;;;;;6.80;2.50;;;;;;;;;;10341390;28;20320;-78
2021/03/06 16:40:51;;;;;;;4.47;2.10;;;;;;;;;;10337782;28;20737;-77
2021/03/06 16:45:54;;;;;;;3.87;2.03;;;;;;;;;;10337908;28;20275;-76
2021/03/06 16:50:58;;;;;;;4.60;1.90;;;;;;;;;;10337067;28;20212;-75
2021/03/06 16:56:00;;;;;;;4.43;2.00;;;;;;;;;;10331412;28;20237;-76
2021/03/06 17:01:02;;;;;;;4.67;2.00;;;;;;;;;;10337385;28;20791;-76
2021/03/06 17:06:05;;;;;;;3.33;2.00;;;;;;;;;;10328912;28;20212;-75
2021/03/06 17:11:07;;;;;;;3.87;1.70;;;;;;;;;;10336631;28;20680;-75
2021/03/06 17:16:18;;;;;;;4.20;2.40;;;;;;;;;;10329626;28;21330;-75
2021/03/06 17:21:21;;;;;;;5.53;2.60;;;;;;;;;;10335087;28;20954;-76
2021/03/06 17:26:24;;;;;;;8.57;2.67;;;;;;;;;;10336050;28;20797;-75
2021/03/06 17:31:26;;;;;;;4.80;2.40;;;;;;;;;;10336132;28;20368;-76
2021/03/06 17:36:29;;;;;;;5.70;2.60;;;;;;;;;;10335081;28;20237;-76
2021/03/06 17:41:33;;;;;;;4.33;2.40;;;;;;;;;;10331909;28;20317;-77
2021/03/06 17:46:44;;;;;;;6.90;2.70;;;;;;;;;;10335563;28;20548;-78
2021/03/06 17:51:48;;;;;;;4.30;2.70;;;;;;;;;;10325896;28;20217;-78
2021/03/06 17:56:50;;;;;;;6.33;3.30;;;;;;;;;;10330599;28;20298;-76
2021/03/06 18:01:52;;;;;;;6.23;2.90;;;;;;;;;;10330932;28;20244;-76
2021/03/06 18:06:59;;;;;;;11.60;3.23;;;;;;;;;;10325430;28;20217;-77
2021/03/06 18:12:04;;;;;;;10.27;3.07;;;;;;;;;;10329207;28;20215;-77
2021/03/06 18:17:11;;;;;;;6.97;3.23;;;;;;;;;;10336840;28;20255;-77
2021/03/06 18:22:23;;;;;;;6.77;2.80;;;;;;;;;;10337519;28;20221;-77
2021/03/06 18:27:25;;;;;;;7.73;3.10;;;;;;;;;;10331843;28;20202;-77
2021/03/06 18:32:27;;;;;;;4.27;2.50;;;;;;;;;;10330089;28;20213;-76
2021/03/06 18:37:33;;;;;;;5.50;2.97;;;;;;;;;;10334527;28;20268;-77
2021/03/06 18:42:40;;;;;;;7.80;3.00;;;;;;;;;;10324940;28;20220;-77
2021/03/06 18:47:50;;;;;;;7.53;2.80;;;;;;;;;;10328265;28;20246;-77
2021/03/06 18:53:12;;;;;;;6.67;2.80;;;;;;;;;;10336386;28;20217;-77
2021/03/06 18:58:18;;;;;;;7.00;2.60;;;;;;;;;;10333701;28;21012;-77
2021/03/06 19:03:20;;;;;;;9.10;2.80;;;;;;;;;;10345942;28;20229;-77
2021/03/06 19:08:23;;;;;;;5.70;2.90;;;;;;;;;;10338710;28;20220;-77
2021/03/06 19:13:25;;;;;;;5.37;2.40;;;;;;;;;;10342079;28;20670;-76
2021/03/06 19:18:27;;;;;;;5.03;3.03;;;;;;;;;;10337906;28;20224;-77
2021/03/06 19:23:30;;;;;;;5.13;3.00;;;;;;;;;;10337563;28;20213;-77
2021/03/06 19:28:31;;;;;;;9.83;3.30;;;;;;;;;;10334812;28;20212;-77
2021/03/06 19:33:34;;;;;;;7.93;3.40;;;;;;;;;;10344760;28;20216;-77
2021/03/06 19:38:37;;;;;;;9.17;3.63;;;;;;;;;;10333696;28;20816;-77
2021/03/06 19:43:40;;;;;;;8.17;3.10;;;;;;;;;;10332184;28;20820;-77
2021/03/06 19:48:46;;;;;;;5.83;3.00;;;;;;;;;;10340564;28;20223;-77
2021/03/06 19:53:49;;;;;;;5.70;2.90;;;;;;;;;;10339603;28;20358;-77
2021/03/06 19:58:53;;;;;;;7.47;3.63;;;;;;;;;;10327878;28;20228;-77
2021/03/06 20:04:04;;;;;;;8.33;2.90;;;;;;;;;;10327432;28;20224;-77
2021/03/06 20:09:07;;;;;;;5.90;2.67;;;;;;;;;;10330040;28;20624;-78
2021/03/06 20:14:12;;;;;;;4.50;2.57;;;;;;;;;;10325965;28;20217;-78
2021/03/06 20:19:14;;;;;;;4.30;2.50;;;;;;;;;;10331855;28;20321;-77
2021/03/06 20:24:17;;;;;;;5.47;2.70;;;;;;;;;;10333108;28;20213;-77
2021/03/06 20:29:19;;;;;;;7.00;3.07;;;;;;;;;;10326622;28;20211;-78
2021/03/06 20:34:21;;;;;;;9.00;2.63;;;;;;;;;;10329458;28;20244;-77
2021/03/06 20:39:24;;;;;;;5.17;2.60;;;;;;;;;;10322286;28;20287;-77
2021/03/06 20:44:26;;;;;;;7.13;2.40;;;;;;;;;;10331809;28;20264;-77
2021/03/06 20:49:29;;;;;;;4.73;2.50;;;;;;;;;;10328346;28;20228;-77
2021/03/06 20:54:31;;;;;;;6.67;2.77;;;;;;;;;;10329529;28;20206;-78
2021/03/06 20:59:33;;;;;;;6.00;2.80;;;;;;;;;;10320945;28;20271;-78
2021/03/06 21:04:35;;;;;;;8.70;3.10;;;;;;;;;;10326621;28;20240;-77
2021/03/06 21:09:38;;;;;;;7.10;3.37;;;;;;;;;;10321023;28;20222;-77
2021/03/06 21:14:41;;;;;;;6.10;3.00;;;;;;;;;;10328887;28;20217;-77
2021/03/06 21:19:43;;;;;;;8.03;2.93;;;;;;;;;;10330146;28;20241;-77
2021/03/06 21:24:46;;;;;;;7.97;3.30;;;;;;;;;;10324895;28;20217;-77
2021/03/06 21:29:56;;;;;;;9.80;3.77;;;;;;;;;;10326896;28;20794;-77
2021/03/06 21:34:58;;;;;;;8.10;3.80;;;;;;;;;;10324346;28;20854;-76
2021/03/06 21:40:04;;;;;;;8.13;4.03;;;;;;;;;;10330096;28;20247;-77
2021/03/06 21:45:12;;;;;;;8.97;4.27;;;;;;;;;;10330022;28;20705;-77
2021/03/06 21:50:14;;;;;;;9.97;4.60;;;;;;;;;;10332498;28;20221;-77
2021/03/06 21:55:17;;;;;;;9.10;4.67;;;;;;;;;;10322658;28;20210;-78
2021/03/06 22:00:20;;;;;;;9.93;5.10;;;;;;;;;;10326306;28;20706;-77
2021/03/06 22:05:23;;;;;;;12.13;4.73;;;;;;;;;;10323052;28;20232;-77
2021/03/06 22:10:28;;;;;;;13.20;5.17;;;;;;;;;;10326497;28;20840;-76
2021/03/06 22:15:30;;;;;;;9.67;5.27;;;;;;;;;;10321213;28;20325;-78
2021/03/06 22:20:32;;;;;;;10.43;5.37;;;;;;;;;;10325084;28;20604;-77
2021/03/06 22:25:36;;;;;;;12.00;5.33;;;;;;;;;;10326586;28;20235;-77
2021/03/06 22:30:40;;;;;;;13.03;6.50;;;;;;;;;;10329639;28;20232;-76
2021/03/06 22:35:42;;;;;;;11.53;5.90;;;;;;;;;;10331793;28;20213;-75
2021/03/06 22:40:45;;;;;;;11.43;6.30;;;;;;;;;;10322994;28;20692;-77
2021/03/06 22:45:47;;;;;;;11.13;6.03;;;;;;;;;;10330178;28;20343;-77
2021/03/06 22:50:50;;;;;;;9.73;5.20;;;;;;;;;;10327488;28;20312;-76
2021/03/06 22:55:53;;;;;;;9.73;5.87;;;;;;;;;;10324067;28;20205;-76
2021/03/06 23:00:57;;;;;;;10.67;6.03;;;;;;;;;;10333481;28;20701;-77
2021/03/06 23:06:02;;;;;;;9.63;5.47;;;;;;;;;;10329333;28;20366;-76
2021/03/06 23:11:06;;;;;;;9.90;5.30;;;;;;;;;;10329990;28;20780;-76
2021/03/06 23:16:09;;;;;;;11.70;5.93;;;;;;;;;;10327919;28;20217;-76
2021/03/06 23:21:11;;;;;;;11.13;5.63;;;;;;;;;;10330619;28;20838;-77
2021/03/06 23:26:15;;;;;;;13.70;6.07;;;;;;;;;;10331758;28;20205;-76
2021/03/06 23:31:17;;;;;;;12.67;6.43;;;;;;;;;;10326324;28;20737;-76
2021/03/06 23:36:19;;;;;;;11.57;6.23;;;;;;;;;;10332756;28;20216;-78
2021/03/06 23:41:22;;;;;;;13.37;6.70;;;;;;;;;;10327537;28;20362;-77
2021/03/06 23:46:24;;;;;;;12.80;6.07;;;;;;;;;;10331682;28;20221;-77
2021/03/06 23:51:26;;;;;;;9.27;5.67;;;;;;;;;;10334190;28;21301;-77
2021/03/06 23:56:29;;;;;;;12.83;5.80;;;;;;;;;;10340680;28;20660;-76
